»·PEaware :: PAA561 KSNA-KSFO

PAA561 :: KSNA-KSFO

FLIGHT INFORMATION

Flight Status: Arrived
Operator:
PanAm
More flights by this operator :: More flights under this callsign
Pilot: Ben F. (2808)
Aircraft: BOEING 727-200
(B722)
More flights by this aircraft type
Origin: KSNA John Wayne-Orange Co
United States
Destination: KSFO San Francisco Intl
United States
More flights between these airports :: More routes between these airports
Route: CHANL3 RZS J501 BSR BSR3
File this flight plan on PilotEdge
Remarks:
Altitude:
(Current/Filed)
32,000ft
Speed:
(Current/Filed)
491kts
Departed: 10-Aug-18 08:04 AM
Arrived: 10-Aug-18 09:05 AM
Distance/Time
Traveled:
323nm/1:00
Distance/Time
To Go:
Arrived

Flight Plot

Page will automatically refresh every two minutes.

Flight plan parsing failed; only flown route is shown


Map Options




Map Legend


Flown Route
Filed Route
Departure Airport
Arrival Airport
Navaid (VOR, NDB)
Fix

Horizontal Profiles

Position Reports

Time Latitude Longitude Heading Altitude Ground
Speed
10-Aug-18 07:49 33.680118 -117.861868 90 68ft 0kts
10-Aug-18 07:50 33.680118 -117.861868 90 68ft 0kts
10-Aug-18 07:51 33.680118 -117.861868 90 68ft 0kts
10-Aug-18 07:52 33.680118 -117.861868 90 68ft 0kts
10-Aug-18 07:53 33.680118 -117.861868 90 68ft 0kts
10-Aug-18 07:54 33.680118 -117.861868 90 68ft 0kts
10-Aug-18 07:55 33.680118 -117.861868 90 68ft 0kts
10-Aug-18 07:56 33.680118 -117.861869 90 68ft 0kts
10-Aug-18 07:57 33.680332 -117.862296 154 68ft 2kts
10-Aug-18 07:58 33.680888 -117.862163 206 68ft 2kts
10-Aug-18 07:59 33.680960 -117.862119 207 68ft 0kts
10-Aug-18 08:00 33.680960 -117.862119 207 68ft 0kts
10-Aug-18 08:01 33.680944 -117.862129 207 68ft 2kts
10-Aug-18 08:02 33.681150 -117.864171 298 68ft 0kts
10-Aug-18 08:03 33.681446 -117.865076 249 68ft 5kts
10-Aug-18 08:04 33.681162 -117.865364 208 68ft 0kts
10-Aug-18 08:05 33.655281 -117.882529 210 733ft 168kts
10-Aug-18 08:06 33.606279 -117.891889 183 2669ft 194kts
10-Aug-18 08:07 33.545123 -117.912820 209 4796ft 273kts
10-Aug-18 08:09 33.465113 -118.064638 253 10793ft 310kts
10-Aug-18 08:10 33.443179 -118.171033 275 12650ft 354kts
10-Aug-18 08:11 33.497229 -118.269019 312 15012ft 367kts
10-Aug-18 08:12 33.565553 -118.362343 310 17282ft 379kts
10-Aug-18 08:13 33.626678 -118.467148 309 19275ft 389kts
10-Aug-18 08:14 33.696416 -118.567745 312 21063ft 398kts
10-Aug-18 08:15 33.766401 -118.669051 311 22688ft 405kts
10-Aug-18 08:16 33.838381 -118.773915 311 24158ft 412kts
10-Aug-18 08:17 33.911304 -118.880459 310 25585ft 415kts
10-Aug-18 08:18 33.985019 -118.988496 309 26738ft 420kts
10-Aug-18 08:19 34.053979 -119.089926 308 27474ft 432kts
10-Aug-18 08:20 34.129270 -119.201034 308 28400ft 439kts
10-Aug-18 08:21 34.193226 -119.295643 308 29126ft 443kts
10-Aug-18 08:22 34.283686 -119.429884 308 30071ft 448kts
10-Aug-18 08:23 34.360492 -119.544258 307 30886ft 450kts
10-Aug-18 08:24 34.425561 -119.641443 307 31505ft 451kts
10-Aug-18 08:25 34.503109 -119.757570 308 32022ft 457kts
10-Aug-18 08:26 34.614026 -119.882374 316 32048ft 476kts
10-Aug-18 08:27 34.696672 -119.972637 316 32065ft 483kts
10-Aug-18 08:28 34.796059 -120.081406 316 32074ft 481kts
10-Aug-18 08:29 34.894761 -120.189798 316 32082ft 480kts
10-Aug-18 08:30 34.993178 -120.298225 316 32074ft 477kts
10-Aug-18 08:31 35.090946 -120.406314 316 32071ft 474kts
10-Aug-18 08:32 35.186164 -120.511973 316 32071ft 471kts
10-Aug-18 08:33 35.281192 -120.618771 316 32070ft 468kts
10-Aug-18 08:34 35.372125 -120.721519 315 32074ft 466kts
10-Aug-18 08:35 35.466589 -120.828240 316 32074ft 464kts
10-Aug-18 08:36 35.561126 -120.934647 316 32074ft 463kts
10-Aug-18 08:37 35.655439 -121.041042 315 32073ft 462kts
10-Aug-18 08:38 35.749508 -121.147555 314 32072ft 461kts
10-Aug-18 08:39 35.843169 -121.253991 314 32074ft 460kts
10-Aug-18 08:40 35.934811 -121.358401 314 30921ft 443kts
10-Aug-18 08:41 36.023573 -121.459841 314 29025ft 429kts
10-Aug-18 08:42 36.107449 -121.555993 314 27259ft 415kts
10-Aug-18 08:43 36.189686 -121.647615 322 25450ft 403kts
10-Aug-18 08:44 36.276851 -121.724115 322 23724ft 391kts
10-Aug-18 08:45 36.363906 -121.800075 322 21997ft 381kts
10-Aug-18 08:46 36.448422 -121.872914 330 20768ft 358kts
10-Aug-18 08:47 36.541528 -121.905042 344 18159ft 347kts
10-Aug-18 08:48 36.633060 -121.932119 344 15600ft 333kts
10-Aug-18 08:49 36.720982 -121.957858 345 13111ft 320kts
10-Aug-18 08:50 36.803477 -121.980172 346 11997ft 280kts
10-Aug-18 08:51 36.881850 -122.000669 347 9997ft 276kts
10-Aug-18 08:52 36.959000 -122.020843 347 10008ft 291kts
10-Aug-18 08:53 37.035867 -122.041046 346 9994ft 274kts
10-Aug-18 08:54 37.108069 -122.060198 346 9928ft 270kts
10-Aug-18 08:55 37.183447 -122.080233 346 8657ft 283kts
10-Aug-18 08:56 37.256452 -122.096316 8 7963ft 247kts
10-Aug-18 08:57 37.316305 -122.076753 13 7545ft 224kts
10-Aug-18 08:58 37.378251 -122.056779 13 6133ft 236kts
10-Aug-18 08:59 37.440040 -122.037993 13 4451ft 227kts
10-Aug-18 09:00 37.486651 -122.066539 313 3961ft 178kts
10-Aug-18 09:01 37.512303 -122.127102 298 4152ft 219kts
10-Aug-18 09:02 37.542587 -122.193923 298 3133ft 211kts
10-Aug-18 09:03 37.567123 -122.252560 299 1839ft 173kts
10-Aug-18 09:04 37.587751 -122.299708 297 1191ft 147kts
10-Aug-18 09:05 37.605727 -122.344080 298 256ft 136kts
10-Aug-18 09:06 37.619981 -122.378352 274 25ft 13kts
10-Aug-18 09:07 37.619110 -122.380928 302 25ft 7kts
10-Aug-18 09:08 37.618465 -122.382162 137 25ft 4kts
10-Aug-18 09:09 37.618355 -122.382036 138 25ft 0kts

Navigation Log

Ident Type
Flight plan parsing failed, navigation log unavailable